createdAt,value
2018-02-13T00:04:11.574Z,80.00
2018-02-13T00:09:15.190Z,79.80
2018-02-13T00:14:18.500Z,80.00
2018-02-13T00:19:25.214Z,79.80
2018-02-13T00:24:34.425Z,80.10
2018-02-13T00:29:41.216Z,80.30
2018-02-13T00:34:48.880Z,80.20
2018-02-13T00:39:58.645Z,80.10
2018-02-13T00:45:05.400Z,79.90
2018-02-13T00:50:11.203Z,80.10
2018-02-13T00:55:39.577Z,80.10
2018-02-13T01:00:59.351Z,80.10
2018-02-13T01:06:19.613Z,80.10
2018-02-13T01:16:48.316Z,80.00
2018-02-13T01:21:54.258Z,79.80
2018-02-13T01:32:17.935Z,79.90
2018-02-13T01:37:37.378Z,79.70
2018-02-13T01:42:43.501Z,80.60
2018-02-13T01:47:50.506Z,80.00
2018-02-13T01:53:23.086Z,79.90
2018-02-13T01:58:27.515Z,79.90
2018-02-13T02:03:39.719Z,80.10
2018-02-13T02:14:06.461Z,80.10
2018-02-13T02:19:11.415Z,80.30
2018-02-13T02:24:18.988Z,80.20
2018-02-13T02:29:27.909Z,80.40
2018-02-13T02:34:38.780Z,80.90
2018-02-13T02:39:45.347Z,80.10
2018-02-13T02:44:50.671Z,81.10
2018-02-13T02:49:55.909Z,80.70
2018-02-13T02:55:03.394Z,80.30
2018-02-13T03:00:15.328Z,80.80
2018-02-13T03:05:21.538Z,80.80
2018-02-13T03:10:30.554Z,80.80
2018-02-13T03:15:34.439Z,80.70
2018-02-13T03:20:46.807Z,80.90
2018-02-13T03:31:07.834Z,81.20
2018-02-13T03:36:12.819Z,80.80
2018-02-13T03:41:17.443Z,81.10
2018-02-13T03:46:21.029Z,81.10
2018-02-13T03:51:28.341Z,81.00
2018-02-13T03:56:40.552Z,80.80
2018-02-13T04:01:57.034Z,81.00
2018-02-13T04:07:02.571Z,80.80
2018-02-13T04:12:07.617Z,80.80
2018-02-13T04:17:17.032Z,80.40
2018-02-13T04:22:22.656Z,80.50
2018-02-13T04:27:28.659Z,80.30
2018-02-13T04:32:35.027Z,80.20
2018-02-13T04:37:37.986Z,80.10
2018-02-13T04:42:44.194Z,79.80
2018-02-13T04:47:50.458Z,79.80
2018-02-13T04:52:58.264Z,80.00
2018-02-13T04:58:01.167Z,80.30
2018-02-13T05:03:04.903Z,80.20
2018-02-13T05:08:11.489Z,80.30
2018-02-13T05:13:16.080Z,80.50
2018-02-13T05:18:22.714Z,80.60
2018-02-13T05:23:31.008Z,81.80
2018-02-13T05:28:33.721Z,81.00
2018-02-13T05:33:40.242Z,81.00
2018-02-13T05:38:44.769Z,81.30
2018-02-13T05:43:49.397Z,81.30
2018-02-13T05:49:15.741Z,81.60
2018-02-13T05:54:35.364Z,81.60
2018-02-13T05:59:39.171Z,81.60
2018-02-13T06:04:41.947Z,81.70
2018-02-13T06:09:47.379Z,81.70
2018-02-13T06:14:50.831Z,81.60
2018-02-13T06:19:55.616Z,81.60
2018-02-13T06:25:01.880Z,81.80
2018-02-13T06:30:05.785Z,82.00
2018-02-13T06:35:10.547Z,81.70
2018-02-13T06:40:20.086Z,82.00
2018-02-13T06:45:40.503Z,82.40
2018-02-13T06:50:46.357Z,81.60
2018-02-13T06:55:51.486Z,81.70
2018-02-13T07:00:55.915Z,81.50
2018-02-13T07:06:01.356Z,81.40
2018-02-13T07:11:05.481Z,81.40
2018-02-13T07:16:08.309Z,81.40
2018-02-13T07:21:14.244Z,81.60
2018-02-13T07:26:17.217Z,81.50
2018-02-13T07:31:24.228Z,81.60
2018-02-13T07:36:31.167Z,81.60
2018-02-13T07:41:36.976Z,81.50
2018-02-13T07:46:45.268Z,80.90
2018-02-13T07:51:48.612Z,81.30
2018-02-13T07:56:53.412Z,81.20
2018-02-13T08:01:57.152Z,81.40
2018-02-13T08:07:02.382Z,81.10
2018-02-13T08:12:06.968Z,81.00
2018-02-13T08:17:15.960Z,81.00
2018-02-13T08:22:21.328Z,81.10
2018-02-13T08:27:29.497Z,81.10
2018-02-13T08:32:36.266Z,81.20
2018-02-13T08:37:42.129Z,81.30
2018-02-13T08:47:56.637Z,81.10
2018-02-13T08:53:08.402Z,80.90
2018-02-13T08:58:14.302Z,80.80
2018-02-13T09:03:23.368Z,80.80
2018-02-13T09:08:31.653Z,81.00
2018-02-13T09:13:39.938Z,81.10
2018-02-13T09:18:47.228Z,80.90
2018-02-13T09:29:10.432Z,80.40
2018-02-13T09:34:27.491Z,80.40
2018-02-13T09:39:35.952Z,80.80
2018-02-13T09:45:01.268Z,80.60
2018-02-13T09:50:20.597Z,79.00
2018-02-13T09:55:39.150Z,79.10
2018-02-13T10:00:54.738Z,78.10
2018-02-13T10:06:09.636Z,77.40
2018-02-13T10:11:27.677Z,77.40
2018-02-13T10:16:31.310Z,76.10
2018-02-13T10:21:37.369Z,76.50
2018-02-13T10:32:04.715Z,75.00
2018-02-13T10:37:10.686Z,75.00
2018-02-13T10:47:54.861Z,74.90
2018-02-13T10:53:00.721Z,74.50
2018-02-13T11:09:16.563Z,75.40
2018-02-13T11:14:22.889Z,75.90
2018-02-13T11:24:47.557Z,74.10
2018-02-13T11:29:56.922Z,74.00
2018-02-13T11:35:08.745Z,73.20
2018-02-13T11:40:18.104Z,72.10
2018-02-13T11:45:26.133Z,71.40
2018-02-13T11:50:35.080Z,71.40
2018-02-13T11:55:42.936Z,73.40
2018-02-13T12:00:49.126Z,73.10
2018-02-13T12:05:57.702Z,73.10
2018-02-13T12:11:10.480Z,73.20
2018-02-13T12:16:29.113Z,72.90
2018-02-13T12:27:22.005Z,69.90
2018-02-13T12:32:31.823Z,72.80
2018-02-13T12:37:40.952Z,73.30
2018-02-13T12:42:50.440Z,73.60
2018-02-13T12:48:07.018Z,73.00
2018-02-13T12:53:22.304Z,69.00
2018-02-13T13:04:20.095Z,71.20
2018-02-13T13:09:24.742Z,65.60
2018-02-13T13:14:34.269Z,68.50
2018-02-13T13:19:49.067Z,64.40
2018-02-13T13:30:53.268Z,62.30
2018-02-13T13:36:18.925Z,67.00
2018-02-13T13:47:32.977Z,54.30
2018-02-13T14:21:10.937Z,64.50
2018-02-13T14:56:06.009Z,62.80
2018-02-13T15:44:49.672Z,62.50
2018-02-13T15:50:00.184Z,58.60
2018-02-13T15:55:14.227Z,61.80
2018-02-13T16:05:40.069Z,59.30
2018-02-13T16:16:29.306Z,59.70
2018-02-13T16:21:48.428Z,59.60
2018-02-13T16:26:54.159Z,58.80
2018-02-13T16:32:07.621Z,58.30
2018-02-13T16:42:38.772Z,58.40
2018-02-13T16:55:38.857Z,59.10
2018-02-13T17:00:49.453Z,59.30
2018-02-13T17:06:16.411Z,59.40
2018-02-13T17:11:44.812Z,59.20
2018-02-13T17:16:53.218Z,59.00
2018-02-13T17:32:39.183Z,58.90
2018-02-13T17:37:48.358Z,59.40
2018-02-13T17:42:59.287Z,59.60
2018-02-13T17:48:07.540Z,59.70
2018-02-13T17:53:14.623Z,61.10
2018-02-13T18:03:34.517Z,60.90
2018-02-13T18:08:42.463Z,61.60
2018-02-13T18:13:47.505Z,61.50
2018-02-13T18:19:11.000Z,63.50
2018-02-13T18:24:15.258Z,63.30
2018-02-13T18:42:41.309Z,64.90
2018-02-13T18:58:02.492Z,65.50
2018-02-13T19:08:56.761Z,66.00
2018-02-13T19:14:17.982Z,66.50
2018-02-13T19:30:25.298Z,67.00
2018-02-13T19:35:58.377Z,67.50
2018-02-13T19:41:08.802Z,67.70
2018-02-13T20:16:00.988Z,68.80
2018-02-13T20:21:10.621Z,68.60
2018-02-13T20:31:39.239Z,68.90
2018-02-13T20:43:20.757Z,69.50
2018-02-13T20:49:08.076Z,69.40
2018-02-13T21:41:02.566Z,70.20
2018-02-13T21:46:11.924Z,70.30
2018-02-13T21:51:25.816Z,70.30
2018-02-13T21:56:34.906Z,70.40
2018-02-13T22:01:42.961Z,70.30
2018-02-13T22:06:52.281Z,70.40
2018-02-13T22:12:02.554Z,70.40
2018-02-13T22:17:21.825Z,70.50
2018-02-13T22:27:47.660Z,70.50
2018-02-13T22:32:58.254Z,70.50
2018-02-13T22:38:08.974Z,70.50
2018-02-13T22:43:14.350Z,70.60
2018-02-13T22:48:27.691Z,70.50
2018-02-13T22:53:34.829Z,70.80
2018-02-13T22:58:41.473Z,70.80
2018-02-13T23:03:52.705Z,70.80
2018-02-13T23:08:59.520Z,71.40
2018-02-13T23:14:06.115Z,70.70
2018-02-13T23:19:12.883Z,70.70
2018-02-13T23:24:34.010Z,70.90
2018-02-13T23:29:37.120Z,71.00
2018-02-13T23:34:40.925Z,70.50
2018-02-13T23:39:54.143Z,71.00
2018-02-13T23:45:03.398Z,71.00
2018-02-13T23:50:12.347Z,71.30
2018-02-13T23:55:24.760Z,71.20
